createdAt,value
2019-03-12T00:00:49.584Z,9.20
2019-03-12T00:01:49.565Z,10.40
2019-03-12T00:02:49.572Z,10.70
2019-03-12T00:03:49.553Z,10.00
2019-03-12T00:04:49.534Z,9.60
2019-03-12T00:05:49.526Z,10.20
2019-03-12T00:06:49.511Z,9.90
2019-03-12T00:07:49.519Z,9.80
2019-03-12T00:08:49.488Z,9.80
2019-03-12T00:09:49.480Z,9.80
2019-03-12T00:10:49.476Z,10.00
2019-03-12T00:11:49.456Z,9.90
2019-03-12T00:12:49.460Z,9.80
2019-03-12T00:13:49.443Z,10.10
2019-03-12T00:14:49.420Z,9.90
2019-03-12T00:15:49.408Z,10.00
2019-03-12T00:16:49.404Z,10.00
2019-03-12T00:17:49.417Z,9.30
2019-03-12T00:18:49.396Z,9.60
2019-03-12T00:19:49.368Z,9.20
2019-03-12T00:20:49.360Z,9.70
2019-03-12T00:21:49.356Z,9.70
2019-03-12T00:22:49.364Z,9.40
2019-03-12T00:23:49.330Z,8.80
2019-03-12T00:24:49.314Z,9.00
2019-03-12T00:25:49.309Z,8.90
2019-03-12T00:26:49.300Z,8.90
2019-03-12T00:27:49.300Z,9.50
2019-03-12T00:28:49.271Z,8.80
2019-03-12T00:29:49.273Z,9.70
2019-03-12T00:30:49.244Z,9.40
2019-03-12T00:31:49.238Z,9.30
2019-03-12T00:32:49.251Z,9.40
2019-03-12T00:33:49.213Z,8.70
2019-03-12T00:34:49.216Z,9.00
2019-03-12T00:35:49.190Z,8.70
2019-03-12T00:36:49.196Z,9.70
2019-03-12T00:37:49.193Z,9.50
2019-03-12T00:38:49.163Z,9.00
2019-03-12T00:39:49.156Z,8.80
2019-03-12T00:40:49.156Z,9.20
2019-03-12T00:41:49.130Z,9.80
2019-03-12T00:42:49.139Z,8.50
2019-03-12T00:43:49.117Z,8.40
2019-03-12T00:44:49.105Z,8.70
2019-03-12T00:45:49.092Z,8.10
2019-03-12T00:46:49.096Z,9.10
2019-03-12T00:47:49.088Z,8.40
2019-03-12T00:48:49.052Z,8.50
2019-03-12T00:49:49.060Z,8.90
2019-03-12T00:50:49.053Z,8.60
2019-03-12T00:51:49.022Z,8.50
2019-03-12T00:52:49.072Z,8.80
2019-03-12T00:53:49.003Z,8.80
2019-03-12T00:54:49.001Z,9.70
2019-03-12T00:55:48.983Z,9.20
2019-03-12T00:56:48.972Z,9.00
2019-03-12T00:57:48.966Z,9.30
2019-03-12T00:58:48.974Z,8.70
2019-03-12T00:59:48.933Z,9.50
2019-03-12T01:00:48.937Z,8.90
2019-03-12T01:01:48.921Z,9.00
2019-03-12T01:02:48.917Z,9.50
2019-03-12T01:03:48.931Z,9.70
2019-03-12T01:04:48.879Z,9.20
2019-03-12T01:05:48.865Z,9.70
2019-03-12T01:06:48.860Z,9.30
2019-03-12T01:07:48.854Z,9.50
2019-03-12T01:08:48.860Z,8.60
2019-03-12T01:09:48.825Z,9.00
2019-03-12T01:10:48.823Z,9.40
2019-03-12T01:11:48.808Z,9.80
2019-03-12T01:12:48.796Z,9.20
2019-03-12T01:13:48.804Z,9.30
2019-03-12T01:14:48.770Z,10.00
2019-03-12T01:15:48.770Z,9.80
2019-03-12T01:16:48.751Z,9.20
2019-03-12T01:17:48.749Z,9.10
2019-03-12T01:18:48.739Z,9.10
2019-03-12T01:19:48.726Z,9.10
2019-03-12T01:20:48.712Z,10.00
2019-03-12T01:21:48.695Z,9.30
2019-03-12T01:22:48.686Z,8.70
2019-03-12T01:23:48.696Z,9.00
2019-03-12T01:24:48.674Z,10.30
2019-03-12T01:25:48.642Z,9.60
2019-03-12T01:26:48.637Z,10.10
2019-03-12T01:27:48.631Z,10.30
2019-03-12T01:28:48.631Z,9.70
2019-03-12T01:29:48.607Z,9.60
2019-03-12T01:30:48.612Z,9.60
2019-03-12T01:31:48.588Z,10.00
2019-03-12T01:32:48.598Z,9.90
2019-03-12T01:33:48.612Z,10.20
2019-03-12T01:34:48.563Z,10.10
2019-03-12T01:35:48.546Z,11.10
2019-03-12T01:36:48.534Z,9.90
2019-03-12T01:37:48.528Z,10.30
2019-03-12T01:38:48.508Z,10.60
2019-03-12T01:39:48.526Z,10.00
2019-03-12T01:40:48.498Z,10.80
2019-03-12T01:41:48.482Z,10.60
2019-03-12T01:42:48.483Z,10.30
2019-03-12T01:43:48.465Z,10.30
2019-03-12T01:44:48.462Z,11.10
2019-03-12T01:45:48.419Z,10.70
2019-03-12T01:46:48.415Z,10.40
2019-03-12T01:47:48.427Z,11.30
2019-03-12T01:48:48.398Z,11.00
2019-03-12T01:49:48.432Z,10.10
2019-03-12T01:50:48.376Z,10.20
2019-03-12T01:51:48.378Z,10.90
2019-03-12T01:52:48.367Z,10.90
2019-03-12T01:53:48.355Z,11.00
2019-03-12T01:54:48.363Z,10.50
2019-03-12T01:55:48.348Z,11.20
2019-03-12T01:56:48.313Z,11.60
2019-03-12T01:57:48.326Z,11.70
2019-03-12T01:58:48.298Z,11.10
2019-03-12T01:59:48.300Z,10.70
2019-03-12T02:00:48.262Z,11.40
2019-03-12T02:01:48.251Z,12.10
2019-03-12T02:02:48.258Z,11.80
2019-03-12T02:03:48.240Z,12.10
2019-03-12T02:04:48.237Z,11.60
2019-03-12T02:05:48.222Z,12.10
2019-03-12T02:06:48.216Z,11.60
2019-03-12T02:07:48.207Z,11.70
2019-03-12T02:08:48.191Z,11.90
2019-03-12T02:09:48.185Z,12.10
2019-03-12T02:10:48.167Z,12.80
2019-03-12T02:11:48.151Z,13.50
2019-03-12T02:12:48.149Z,12.90
2019-03-12T02:13:48.128Z,13.50
2019-03-12T02:14:48.158Z,13.30
2019-03-12T02:15:48.113Z,13.90
2019-03-12T02:16:48.096Z,14.40
2019-03-12T02:17:48.097Z,14.00
2019-03-12T02:18:48.085Z,14.00
2019-03-12T02:19:48.082Z,13.80
2019-03-12T02:20:48.052Z,12.70
2019-03-12T02:21:48.053Z,13.60
2019-03-12T02:22:48.037Z,13.60
2019-03-12T02:23:48.022Z,13.70
2019-03-12T02:24:52.536Z,14.10
2019-03-12T02:25:49.003Z,14.10
2019-03-12T02:26:48.005Z,14.10
2019-03-12T02:27:47.987Z,14.40
2019-03-12T02:28:47.967Z,15.10
2019-03-12T02:29:47.969Z,14.30
2019-03-12T02:30:47.948Z,14.20
2019-03-12T02:31:47.935Z,14.40
2019-03-12T02:32:47.914Z,14.10
2019-03-12T02:33:47.897Z,14.90
2019-03-12T02:34:47.916Z,15.30
2019-03-12T02:35:47.889Z,15.10
2019-03-12T02:36:47.875Z,16.00
2019-03-12T02:37:47.879Z,16.20
2019-03-12T02:38:47.853Z,15.70
2019-03-12T02:39:47.861Z,15.80
2019-03-12T02:40:47.832Z,16.60
2019-03-12T02:41:47.823Z,16.80
2019-03-12T02:42:47.849Z,16.80
2019-03-12T02:43:47.804Z,17.20
2019-03-12T02:44:47.806Z,16.60
2019-03-12T02:45:47.770Z,17.00
2019-03-12T02:46:47.787Z,16.60
2019-03-12T02:47:47.786Z,16.30
2019-03-12T02:48:47.746Z,17.20
2019-03-12T02:49:47.753Z,16.10
2019-03-12T02:50:47.728Z,16.10
2019-03-12T02:51:47.719Z,16.80
2019-03-12T02:52:47.702Z,16.40
2019-03-12T02:53:47.705Z,17.00
2019-03-12T02:54:47.707Z,17.10
2019-03-12T02:55:47.661Z,18.20
2019-03-12T02:56:47.656Z,17.60
2019-03-12T02:57:47.657Z,17.80
2019-03-12T02:58:47.642Z,16.60
2019-03-12T02:59:47.687Z,17.50
2019-03-12T03:00:47.623Z,17.00
2019-03-12T03:01:47.606Z,17.20
2019-03-12T03:02:47.692Z,16.90
2019-03-12T03:03:47.586Z,18.10
2019-03-12T03:04:47.571Z,19.00
2019-03-12T03:05:47.586Z,17.90
2019-03-12T03:06:47.550Z,17.90
2019-03-12T03:07:47.539Z,18.60
2019-03-12T03:08:47.544Z,17.40
2019-03-12T03:09:47.527Z,18.10
2019-03-12T03:10:47.523Z,17.30
2019-03-12T03:11:50.884Z,17.80
2019-03-12T03:12:47.491Z,18.90
2019-03-12T03:13:47.473Z,18.50
2019-03-12T03:14:47.465Z,18.30
2019-03-12T03:15:47.506Z,18.40
2019-03-12T03:16:47.453Z,19.10
2019-03-12T03:17:47.447Z,17.70
2019-03-12T03:18:47.421Z,17.70
2019-03-12T03:19:47.418Z,18.90
2019-03-12T03:20:47.417Z,19.10
2019-03-12T03:21:47.387Z,18.20
2019-03-12T03:22:47.378Z,18.80
2019-03-12T03:23:47.371Z,17.80
2019-03-12T03:24:47.363Z,18.70
2019-03-12T03:25:47.368Z,18.40
2019-03-12T03:26:47.336Z,18.50
2019-03-12T03:27:47.332Z,18.60
2019-03-12T03:28:47.311Z,18.30
2019-03-12T03:29:47.322Z,19.40
2019-03-12T03:30:47.307Z,19.20
2019-03-12T03:31:47.291Z,19.30
2019-03-12T03:32:47.285Z,20.00
2019-03-12T03:33:47.285Z,18.80
2019-03-12T03:34:47.247Z,18.80
2019-03-12T03:35:47.265Z,19.80
2019-03-12T03:36:47.229Z,19.00
2019-03-12T03:37:47.212Z,18.70
2019-03-12T03:38:47.226Z,19.00
2019-03-12T03:39:47.191Z,19.70
2019-03-12T03:40:47.205Z,18.40
2019-03-12T03:41:47.203Z,19.00
2019-03-12T03:42:47.163Z,19.70
2019-03-12T03:43:47.157Z,19.10
2019-03-12T03:44:47.138Z,19.00
2019-03-12T03:45:47.126Z,19.40
2019-03-12T03:46:47.139Z,18.40
2019-03-12T03:47:47.228Z,18.90
2019-03-12T03:48:47.095Z,17.60
2019-03-12T03:49:47.105Z,18.80
2019-03-12T03:50:47.067Z,18.30
2019-03-12T03:51:47.079Z,18.40
2019-03-12T03:52:47.048Z,18.20
2019-03-12T03:53:47.040Z,18.30
2019-03-12T03:54:47.029Z,18.60
2019-03-12T03:55:47.041Z,18.00
2019-03-12T03:56:47.022Z,18.90
2019-03-12T03:57:47.014Z,18.20
2019-03-12T03:58:46.994Z,18.50
2019-03-12T03:59:46.981Z,18.00
2019-03-12T04:00:46.988Z,18.10
2019-03-12T04:01:46.981Z,16.90
2019-03-12T04:02:46.942Z,18.20
2019-03-12T04:03:46.934Z,18.40
2019-03-12T04:04:46.930Z,17.00
2019-03-12T04:05:46.915Z,17.50
2019-03-12T04:06:46.919Z,18.30
2019-03-12T04:07:46.882Z,17.30
2019-03-12T04:08:46.885Z,18.10
2019-03-12T04:09:46.879Z,17.20
2019-03-12T04:10:46.864Z,17.20
2019-03-12T04:11:46.862Z,16.80
2019-03-12T04:12:46.832Z,17.20
2019-03-12T04:13:46.821Z,17.00
2019-03-12T04:14:46.809Z,16.30
2019-03-12T04:15:46.801Z,15.10
2019-03-12T04:16:46.812Z,15.40
2019-03-12T04:17:46.778Z,16.10
2019-03-12T04:18:46.767Z,16.30
2019-03-12T04:19:46.757Z,16.40
2019-03-12T04:20:46.745Z,16.80
2019-03-12T04:21:46.768Z,17.10
2019-03-12T04:22:46.730Z,17.30
2019-03-12T04:23:46.715Z,16.10
2019-03-12T04:24:46.692Z,16.40
2019-03-12T04:25:46.700Z,16.40
2019-03-12T04:26:46.683Z,16.30
2019-03-12T04:27:46.680Z,16.80
2019-03-12T04:28:46.671Z,16.20
2019-03-12T04:29:46.649Z,15.80
2019-03-12T04:30:46.646Z,15.20
2019-03-12T04:31:46.623Z,16.60
2019-03-12T04:32:46.634Z,15.60
2019-03-12T04:33:46.607Z,16.60
2019-03-12T04:34:46.582Z,16.10
2019-03-12T04:35:46.570Z,16.70
2019-03-12T04:36:46.577Z,16.40
2019-03-12T04:37:46.575Z,16.90
2019-03-12T04:38:46.545Z,15.60
2019-03-12T04:39:46.545Z,16.60
2019-03-12T04:40:46.523Z,15.90
2019-03-12T04:41:46.519Z,16.30
2019-03-12T04:42:46.518Z,15.50
2019-03-12T04:43:46.484Z,16.20
2019-03-12T04:44:46.485Z,15.30
2019-03-12T04:45:46.465Z,15.00
2019-03-12T04:46:46.454Z,14.50
2019-03-12T04:47:46.475Z,13.90
2019-03-12T04:48:46.443Z,14.70
2019-03-12T04:49:46.422Z,14.40
2019-03-12T04:50:46.415Z,14.00
2019-03-12T04:51:46.400Z,13.80
2019-03-12T04:52:46.402Z,15.00
2019-03-12T04:53:46.384Z,15.00
2019-03-12T04:54:46.372Z,13.80
2019-03-12T04:55:46.363Z,14.40
2019-03-12T04:56:46.350Z,13.50
2019-03-12T04:57:46.370Z,13.50
2019-03-12T04:58:46.331Z,13.30
2019-03-12T04:59:46.315Z,13.00
2019-03-12T05:00:46.340Z,12.60
2019-03-12T05:01:46.298Z,12.40
2019-03-12T05:02:46.311Z,13.10
2019-03-12T05:03:46.310Z,13.40
2019-03-12T05:04:46.265Z,13.00
2019-03-12T05:05:46.254Z,12.70
2019-03-12T05:06:46.243Z,12.60
2019-03-12T05:07:46.245Z,13.00
2019-03-12T05:08:46.236Z,12.80
2019-03-12T05:09:46.220Z,12.70
2019-03-12T05:10:46.197Z,12.70
2019-03-12T05:11:46.179Z,12.80
2019-03-12T05:12:46.185Z,12.90
2019-03-12T05:13:46.192Z,12.50
2019-03-12T05:14:46.163Z,12.80
2019-03-12T05:15:46.137Z,12.30
2019-03-12T05:16:46.136Z,12.80
2019-03-12T05:17:46.126Z,13.10
2019-03-12T05:18:46.117Z,12.40
2019-03-12T05:19:46.097Z,13.10
2019-03-12T05:20:46.088Z,12.80
2019-03-12T05:21:46.075Z,13.00
2019-03-12T05:22:46.076Z,12.70
2019-03-12T05:23:46.061Z,12.70
2019-03-12T05:24:46.036Z,12.60
2019-03-12T05:25:46.032Z,11.90
2019-03-12T05:26:46.026Z,11.40
2019-03-12T05:27:46.019Z,11.60
2019-03-12T05:28:46.021Z,11.80
2019-03-12T05:29:46.001Z,11.80
2019-03-12T05:30:45.981Z,11.60
2019-03-12T05:31:45.985Z,11.60
2019-03-12T05:32:45.962Z,11.80
2019-03-12T05:33:45.971Z,11.70
2019-03-12T05:34:45.945Z,11.60
2019-03-12T05:35:45.930Z,10.90
2019-03-12T05:36:45.910Z,11.60
2019-03-12T05:37:45.906Z,11.50
2019-03-12T05:38:45.912Z,11.30
2019-03-12T05:39:45.880Z,12.40
2019-03-12T05:40:45.872Z,12.60
2019-03-12T05:41:45.867Z,12.30
2019-03-12T05:42:45.850Z,12.20
2019-03-12T05:43:45.858Z,11.90
2019-03-12T05:44:45.837Z,12.10
2019-03-12T05:45:45.812Z,11.80
2019-03-12T05:46:45.805Z,11.50
2019-03-12T05:47:45.796Z,10.70
2019-03-12T05:48:45.810Z,10.40
2019-03-12T05:49:45.784Z,11.10
2019-03-12T05:50:45.763Z,10.50
2019-03-12T05:51:45.744Z,10.50
2019-03-12T05:52:48.817Z,10.00
2019-03-12T05:53:45.744Z,10.40
2019-03-12T05:54:45.748Z,10.40
2019-03-12T05:55:45.713Z,9.90
2019-03-12T05:56:45.691Z,10.30
2019-03-12T05:57:45.677Z,10.40
2019-03-12T05:58:45.672Z,10.50
2019-03-12T05:59:45.696Z,10.40
2019-03-12T06:00:45.650Z,10.90
2019-03-12T06:01:46.759Z,10.60
2019-03-12T06:02:45.632Z,9.10
2019-03-12T06:03:45.634Z,8.60
2019-03-12T06:04:45.636Z,8.70
2019-03-12T06:05:45.596Z,8.50
2019-03-12T06:06:45.604Z,7.90
2019-03-12T06:07:45.575Z,8.20
2019-03-12T06:08:45.560Z,7.90
2019-03-12T06:09:45.571Z,7.60
2019-03-12T06:10:45.555Z,7.80
2019-03-12T06:11:45.538Z,8.00
2019-03-12T06:12:45.533Z,7.60
2019-03-12T06:13:45.516Z,7.10
2019-03-12T06:14:45.514Z,8.00
2019-03-12T06:15:45.499Z,7.70
2019-03-12T06:16:45.470Z,7.50
2019-03-12T06:17:45.580Z,7.10
2019-03-12T06:18:45.477Z,7.80
2019-03-12T06:19:45.463Z,7.90
2019-03-12T06:20:45.432Z,7.20
2019-03-12T06:21:45.424Z,7.70
2019-03-12T06:22:45.421Z,7.40
2019-03-12T06:23:45.419Z,8.00
2019-03-12T06:24:45.415Z,8.50
2019-03-12T06:25:45.388Z,7.60
2019-03-12T06:26:45.362Z,7.70
2019-03-12T06:27:45.368Z,7.40
2019-03-12T06:28:45.345Z,7.30
2019-03-12T06:29:45.359Z,6.90
2019-03-12T06:30:45.323Z,6.10
2019-03-12T06:31:45.314Z,6.70
2019-03-12T06:32:45.313Z,6.80
2019-03-12T06:33:45.296Z,6.60
2019-03-12T06:34:45.319Z,6.70
2019-03-12T06:35:45.282Z,6.50
2019-03-12T06:36:45.275Z,6.90
2019-03-12T06:37:45.247Z,6.60
2019-03-12T06:38:45.244Z,6.40
2019-03-12T06:39:45.224Z,6.80
2019-03-12T06:40:45.260Z,6.80
2019-03-12T06:41:45.218Z,6.80
2019-03-12T06:42:45.195Z,6.90
2019-03-12T06:43:45.197Z,7.10
2019-03-12T06:44:45.221Z,7.10
2019-03-12T06:45:45.212Z,7.10
2019-03-12T06:46:45.155Z,7.20
2019-03-12T06:47:46.520Z,7.80
2019-03-12T06:48:45.136Z,7.40
2019-03-12T06:49:45.114Z,7.70
2019-03-12T06:50:45.127Z,7.70
2019-03-12T06:51:45.125Z,8.40
2019-03-12T06:52:45.099Z,8.80
2019-03-12T06:53:45.077Z,8.70
2019-03-12T06:54:45.080Z,8.80
2019-03-12T06:55:45.079Z,9.30
2019-03-12T06:56:45.053Z,9.30
2019-03-12T06:57:45.037Z,9.50
2019-03-12T06:58:45.045Z,9.10
2019-03-12T06:59:45.010Z,9.40
2019-03-12T07:00:45.028Z,8.10
2019-03-12T07:01:45.001Z,9.10
2019-03-12T07:02:44.977Z,9.20
2019-03-12T07:03:44.969Z,9.60
2019-03-12T07:04:44.953Z,9.20
2019-03-12T07:05:44.989Z,9.10
2019-03-12T07:06:44.928Z,8.70
2019-03-12T07:07:45.869Z,8.70
2019-03-12T07:08:44.915Z,8.90
2019-03-12T07:09:44.914Z,9.20
2019-03-12T07:10:44.920Z,8.50
2019-03-12T07:11:44.879Z,8.80
2019-03-12T07:12:44.868Z,8.50
2019-03-12T07:13:44.857Z,8.30
2019-03-12T07:14:44.843Z,8.20
2019-03-12T07:15:44.842Z,9.20
2019-03-12T07:16:44.812Z,9.20
2019-03-12T07:17:45.831Z,9.20
2019-03-12T07:18:44.803Z,8.80
2019-03-12T07:19:44.785Z,9.00
2019-03-12T07:20:44.784Z,8.70
2019-03-12T07:21:44.754Z,9.10
2019-03-12T07:22:44.746Z,9.40
2019-03-12T07:23:44.735Z,9.50
2019-03-12T07:24:44.740Z,10.00
2019-03-12T07:25:44.765Z,9.50
2019-03-12T07:26:44.715Z,10.40
2019-03-12T07:27:44.712Z,9.10
2019-03-12T07:28:50.242Z,10.10
2019-03-12T07:29:45.674Z,10.30
2019-03-12T07:30:44.706Z,10.20
2019-03-12T07:31:44.667Z,9.50
2019-03-12T07:32:44.636Z,9.60
2019-03-12T07:33:44.648Z,9.30
2019-03-12T07:34:44.616Z,10.10
2019-03-12T07:35:44.620Z,10.20
2019-03-12T07:36:44.599Z,9.60
2019-03-12T07:37:44.602Z,10.10
2019-03-12T07:38:44.577Z,9.80
2019-03-12T07:39:44.562Z,10.30
2019-03-12T07:40:44.560Z,10.50
2019-03-12T07:41:44.568Z,10.60
2019-03-12T07:42:44.535Z,10.80
2019-03-12T07:43:44.520Z,10.10
2019-03-12T07:44:44.513Z,10.20
2019-03-12T07:45:44.530Z,10.20
2019-03-12T07:46:44.494Z,10.20
2019-03-12T07:47:44.468Z,10.50
2019-03-12T07:48:44.471Z,10.60
2019-03-12T07:49:44.460Z,10.20
2019-03-12T07:50:44.466Z,10.20
2019-03-12T07:51:44.442Z,10.50
2019-03-12T07:52:44.439Z,10.10
2019-03-12T07:53:44.409Z,9.90
2019-03-12T07:54:44.428Z,10.60
2019-03-12T07:55:44.388Z,10.10
2019-03-12T07:56:44.408Z,10.20
2019-03-12T07:57:44.371Z,10.60
2019-03-12T07:58:44.358Z,10.40
2019-03-12T07:59:44.356Z,10.80
2019-03-12T08:00:44.331Z,9.90
2019-03-12T08:01:44.340Z,10.00
2019-03-12T08:02:44.315Z,10.30
2019-03-12T08:03:44.308Z,9.90
2019-03-12T08:04:44.300Z,10.00
2019-03-12T08:05:44.303Z,10.20
2019-03-12T08:06:44.302Z,10.40
2019-03-12T08:07:44.254Z,10.60
2019-03-12T08:08:44.255Z,10.30
2019-03-12T08:09:44.234Z,10.40
2019-03-12T08:10:44.223Z,10.10
2019-03-12T08:11:44.235Z,10.80
2019-03-12T08:12:44.213Z,10.60
2019-03-12T08:13:44.186Z,10.90
2019-03-12T08:14:44.175Z,10.20
2019-03-12T08:15:44.165Z,10.70
2019-03-12T08:16:44.176Z,10.20
2019-03-12T08:17:44.148Z,10.30
2019-03-12T08:18:44.141Z,11.10
2019-03-12T08:19:44.123Z,10.80
2019-03-12T08:20:44.120Z,11.50
2019-03-12T08:21:44.142Z,11.10
2019-03-12T08:22:44.085Z,10.10
2019-03-12T08:23:44.096Z,11.30
2019-03-12T08:24:44.059Z,12.10
2019-03-12T08:25:44.142Z,11.80
2019-03-12T08:26:44.054Z,11.90
2019-03-12T08:27:44.035Z,11.30
2019-03-12T08:28:44.025Z,12.30
2019-03-12T08:29:44.005Z,11.40
2019-03-12T08:30:44.097Z,11.50
2019-03-12T08:31:44.040Z,10.60
2019-03-12T08:32:43.978Z,11.40
2019-03-12T08:33:50.571Z,11.60
2019-03-12T08:34:44.970Z,11.40
2019-03-12T08:35:43.951Z,11.90
2019-03-12T08:36:43.945Z,12.00
2019-03-12T08:37:43.936Z,12.50
2019-03-12T08:38:46.228Z,11.90
2019-03-12T08:39:43.898Z,12.00
2019-03-12T08:40:52.413Z,12.30
2019-03-12T08:41:44.895Z,11.00
2019-03-12T08:42:54.118Z,11.60
2019-03-12T08:43:44.858Z,11.90
2019-03-12T08:44:43.840Z,11.30
2019-03-12T08:45:45.420Z,11.50
2019-03-12T08:46:43.826Z,12.60
2019-03-12T08:47:43.825Z,11.20
2019-03-12T08:48:43.804Z,11.80
2019-03-12T08:49:43.786Z,11.40
2019-03-12T08:50:43.783Z,11.60
2019-03-12T08:51:43.778Z,11.80
2019-03-12T08:52:43.780Z,12.40
2019-03-12T08:53:43.750Z,12.60
2019-03-12T08:54:53.894Z,11.90
2019-03-12T08:55:44.741Z,11.90
2019-03-12T08:56:43.723Z,12.00
2019-03-12T08:57:43.737Z,11.60
2019-03-12T08:58:43.696Z,12.20
2019-03-12T08:59:43.677Z,11.30
2019-03-12T09:00:43.675Z,11.30
2019-03-12T09:01:47.274Z,11.40
2019-03-12T09:02:43.655Z,11.00
2019-03-12T09:03:43.633Z,10.80
2019-03-12T09:04:43.626Z,11.40
2019-03-12T09:05:43.614Z,11.70
2019-03-12T09:06:43.603Z,10.40
2019-03-12T09:07:43.611Z,11.00
2019-03-12T09:08:43.571Z,9.30
2019-03-12T09:09:43.558Z,10.20
2019-03-12T09:10:43.552Z,10.50
2019-03-12T09:11:43.536Z,10.90
2019-03-12T09:12:43.548Z,10.80
2019-03-12T09:13:43.540Z,10.20
2019-03-12T09:14:43.510Z,10.40
2019-03-12T09:15:43.504Z,10.10
2019-03-12T09:16:43.479Z,9.60
2019-03-12T09:17:43.510Z,10.10
2019-03-12T09:18:43.471Z,10.60
2019-03-12T09:19:43.456Z,10.80
2019-03-12T09:20:43.442Z,10.30
2019-03-12T09:21:43.434Z,9.20
2019-03-12T09:22:43.414Z,9.00
2019-03-12T09:23:43.439Z,9.30
2019-03-12T09:24:43.392Z,9.30
2019-03-12T09:25:43.397Z,9.50
2019-03-12T09:26:43.378Z,9.20
2019-03-12T09:27:43.373Z,8.90
2019-03-12T09:28:43.377Z,9.60
2019-03-12T09:29:43.348Z,10.00
2019-03-12T09:30:43.343Z,9.70
2019-03-12T09:31:43.322Z,8.60
2019-03-12T09:32:43.312Z,8.70
2019-03-12T09:33:43.317Z,7.80
2019-03-12T09:34:43.283Z,8.20
2019-03-12T09:35:43.272Z,7.90
2019-03-12T09:36:43.265Z,7.60
2019-03-12T09:37:43.253Z,7.30
2019-03-12T09:38:43.260Z,7.30
2019-03-12T09:39:43.234Z,8.00
2019-03-12T09:40:43.222Z,7.90
2019-03-12T09:41:43.209Z,7.70
2019-03-12T09:42:43.209Z,7.50
2019-03-12T09:43:43.213Z,7.10
2019-03-12T09:44:43.179Z,6.90
2019-03-12T09:45:43.165Z,7.00
2019-03-12T09:46:43.166Z,7.60
2019-03-12T09:47:43.151Z,7.20
2019-03-12T09:48:43.157Z,7.40
2019-03-12T09:49:43.161Z,7.60
2019-03-12T09:50:43.115Z,6.90
2019-03-12T09:51:43.111Z,7.10
2019-03-12T09:52:43.103Z,7.10
2019-03-12T09:53:43.084Z,6.90
2019-03-12T09:54:43.062Z,6.30
2019-03-12T09:55:43.067Z,6.30
2019-03-12T09:56:43.043Z,6.40
2019-03-12T09:57:43.034Z,6.20
2019-03-12T09:58:43.044Z,6.30
2019-03-12T09:59:43.006Z,5.80
2019-03-12T10:00:43.006Z,6.20
2019-03-12T10:01:42.987Z,5.70
2019-03-12T10:02:42.982Z,5.40
2019-03-12T10:03:43.004Z,6.30
2019-03-12T10:04:42.987Z,6.40
2019-03-12T10:05:42.946Z,6.40
2019-03-12T10:06:42.937Z,6.30
2019-03-12T10:07:42.918Z,5.60
2019-03-12T10:08:42.930Z,5.80
2019-03-12T10:09:42.932Z,5.60
2019-03-12T10:10:42.898Z,4.50
2019-03-12T10:11:42.891Z,4.50
2019-03-12T10:12:45.249Z,4.50
2019-03-12T10:13:42.867Z,4.70
2019-03-12T10:14:42.858Z,4.60
2019-03-12T10:15:42.833Z,4.60
2019-03-12T10:16:42.831Z,5.40
2019-03-12T10:17:42.840Z,4.70
2019-03-12T10:18:42.803Z,4.10
2019-03-12T10:19:42.793Z,4.80
2019-03-12T10:20:42.780Z,4.40
2019-03-12T10:21:42.769Z,4.10
2019-03-12T10:22:42.770Z,3.90
2019-03-12T10:23:42.752Z,4.10
2019-03-12T10:24:42.748Z,3.70
2019-03-12T10:25:42.732Z,3.50
2019-03-12T10:26:42.744Z,3.90
2019-03-12T10:27:42.798Z,3.90
2019-03-12T10:28:42.692Z,3.90
2019-03-12T10:29:42.721Z,4.00
2019-03-12T10:30:42.664Z,4.00
2019-03-12T10:31:42.674Z,3.80
2019-03-12T10:32:42.644Z,3.70
2019-03-12T10:33:42.631Z,3.70
2019-03-12T10:34:42.622Z,3.70
2019-03-12T10:35:42.643Z,4.10
2019-03-12T10:36:42.601Z,3.90
2019-03-12T10:37:42.599Z,3.60
2019-03-12T10:38:42.586Z,3.10
2019-03-12T10:39:42.667Z,2.90
2019-03-12T10:40:42.591Z,3.40
2019-03-12T10:41:42.545Z,3.50
2019-03-12T10:42:42.557Z,3.10
2019-03-12T10:43:42.524Z,3.10
2019-03-12T10:44:42.521Z,2.60
2019-03-12T10:45:42.519Z,2.80
2019-03-12T10:46:42.492Z,3.20
2019-03-12T10:47:42.478Z,3.00
2019-03-12T10:48:42.500Z,2.70
2019-03-12T10:49:42.454Z,2.40
2019-03-12T10:50:42.469Z,2.10
2019-03-12T10:51:42.438Z,2.70
2019-03-12T10:52:42.425Z,2.70
2019-03-12T10:53:42.424Z,2.50
2019-03-12T10:54:42.400Z,2.40
2019-03-12T10:55:42.416Z,2.50
2019-03-12T10:56:42.381Z,2.30
2019-03-12T10:57:42.358Z,2.40
2019-03-12T10:58:42.355Z,2.60
2019-03-12T10:59:42.348Z,2.10
2019-03-12T11:00:42.343Z,2.10
2019-03-12T11:01:42.330Z,2.30
2019-03-12T11:02:42.333Z,2.00
2019-03-12T11:03:42.315Z,2.00
2019-03-12T11:04:42.296Z,2.40
2019-03-12T11:05:46.165Z,2.30
2019-03-12T11:06:42.318Z,2.10
2019-03-12T11:07:42.260Z,1.90
2019-03-12T11:08:42.245Z,1.70
2019-03-12T11:09:42.245Z,2.00
2019-03-12T11:10:42.274Z,2.10
2019-03-12T11:11:42.215Z,2.10
2019-03-12T11:12:42.209Z,1.90
2019-03-12T11:13:42.196Z,1.80
2019-03-12T11:14:42.178Z,1.90
2019-03-12T11:15:42.173Z,1.80
2019-03-12T11:16:42.168Z,1.70
2019-03-12T11:17:49.677Z,1.90
2019-03-12T11:18:43.130Z,2.10
2019-03-12T11:19:42.118Z,1.80
2019-03-12T11:20:42.109Z,1.90
2019-03-12T11:21:42.121Z,1.50
2019-03-12T11:22:42.092Z,1.90
2019-03-12T11:23:42.093Z,1.70
2019-03-12T11:24:42.065Z,1.70
2019-03-12T11:25:42.052Z,1.70
2019-03-12T11:26:42.104Z,1.50
2019-03-12T11:27:42.074Z,1.50
2019-03-12T11:28:42.030Z,1.40
2019-03-12T11:29:42.003Z,1.50
2019-03-12T11:30:42.001Z,1.80
2019-03-12T11:31:42.011Z,1.70
2019-03-12T11:32:41.973Z,1.90
2019-03-12T11:33:41.975Z,1.80
2019-03-12T11:34:41.960Z,1.80
2019-03-12T11:35:41.950Z,2.20
2019-03-12T11:36:42.010Z,1.80
2019-03-12T11:37:41.931Z,1.80
2019-03-12T11:38:41.920Z,1.70
2019-03-12T11:39:41.909Z,2.00
2019-03-12T11:40:41.911Z,1.80
2019-03-12T11:41:42.019Z,1.80
2019-03-12T11:42:41.864Z,1.80
2019-03-12T11:43:41.892Z,1.50
2019-03-12T11:44:41.843Z,1.60
2019-03-12T11:45:41.884Z,1.50
2019-03-12T11:46:45.215Z,1.90
2019-03-12T11:47:41.843Z,1.60
2019-03-12T11:48:41.803Z,1.70
2019-03-12T11:49:41.881Z,1.40
2019-03-12T11:50:41.876Z,1.50
2019-03-12T11:51:41.786Z,1.80
2019-03-12T11:52:52.720Z,1.40
2019-03-12T11:53:42.754Z,1.20
2019-03-12T11:54:41.777Z,1.40
2019-03-12T11:55:41.859Z,1.40
2019-03-12T11:56:41.742Z,1.40
2019-03-12T11:57:41.719Z,1.40
2019-03-12T11:58:41.699Z,1.50
2019-03-12T11:59:41.679Z,1.30
2019-03-12T12:00:41.681Z,1.30
2019-03-12T12:01:41.680Z,1.60
2019-03-12T12:02:41.681Z,1.60
2019-03-12T12:03:41.685Z,1.50
2019-03-12T12:04:41.617Z,1.00
2019-03-12T12:05:41.611Z,1.40
2019-03-12T12:06:42.966Z,1.60
2019-03-12T12:07:41.619Z,1.40
2019-03-12T12:08:41.583Z,1.50
2019-03-12T12:09:41.580Z,1.40
2019-03-12T12:10:41.558Z,1.40
2019-03-12T12:11:42.443Z,1.20
2019-03-12T12:12:41.556Z,1.40
2019-03-12T12:13:41.522Z,1.40
2019-03-12T12:14:41.522Z,1.40
2019-03-12T12:15:41.515Z,1.40
2019-03-12T12:16:41.492Z,1.30
2019-03-12T12:17:41.495Z,1.30
2019-03-12T12:18:41.471Z,1.50
2019-03-12T12:19:41.452Z,1.30
2019-03-12T12:20:41.458Z,1.20
2019-03-12T12:21:41.434Z,1.30
2019-03-12T12:22:41.462Z,1.70
2019-03-12T12:23:41.416Z,1.70
2019-03-12T12:24:41.412Z,1.60
2019-03-12T12:25:41.390Z,1.50
2019-03-12T12:26:41.382Z,1.20
2019-03-12T12:27:41.602Z,1.20
2019-03-12T12:28:41.361Z,1.40
2019-03-12T12:29:41.345Z,1.20
2019-03-12T12:30:41.357Z,1.70
2019-03-12T12:31:41.326Z,1.50
2019-03-12T12:32:41.354Z,1.20
2019-03-12T12:33:41.304Z,1.30
2019-03-12T12:34:41.309Z,1.40
2019-03-12T12:35:41.314Z,1.70
2019-03-12T12:36:41.287Z,1.80
2019-03-12T12:37:41.325Z,1.70
2019-03-12T12:38:41.262Z,1.30
2019-03-12T12:39:41.246Z,1.10
2019-03-12T12:40:41.252Z,1.40
2019-03-12T12:41:41.217Z,1.40
2019-03-12T12:42:41.236Z,1.40
2019-03-12T12:43:41.195Z,1.30
2019-03-12T12:44:41.203Z,1.20
2019-03-12T12:45:41.194Z,1.20
2019-03-12T12:46:41.152Z,1.30
2019-03-12T12:47:41.158Z,1.40
2019-03-12T12:48:41.132Z,1.30
2019-03-12T12:49:41.127Z,1.30
2019-03-12T12:50:41.120Z,1.60
2019-03-12T12:51:41.106Z,1.50
2019-03-12T12:52:41.099Z,1.20
2019-03-12T12:53:41.098Z,1.30
2019-03-12T12:54:41.073Z,1.50
2019-03-12T12:55:41.051Z,1.70
2019-03-12T12:56:41.055Z,1.90
2019-03-12T12:57:41.063Z,1.50
2019-03-12T12:58:41.031Z,1.70
2019-03-12T12:59:41.015Z,1.50
2019-03-12T13:00:41.015Z,1.50
2019-03-12T13:01:40.998Z,1.70
2019-03-12T13:02:40.996Z,1.40
2019-03-12T13:03:40.979Z,1.40
2019-03-12T13:04:40.982Z,1.60
2019-03-12T13:05:40.962Z,1.70